createdAt,value
2018-09-15T00:00:52.988Z,5.50
2018-09-15T00:01:53.216Z,4.80
2018-09-15T00:02:53.445Z,5.80
2018-09-15T00:03:53.673Z,6.30
2018-09-15T00:04:53.901Z,5.80
2018-09-15T00:05:54.131Z,7.20
2018-09-15T00:06:54.357Z,4.90
2018-09-15T00:07:54.584Z,5.90
2018-09-15T00:08:54.811Z,6.50
2018-09-15T00:09:55.039Z,6.70
2018-09-15T00:10:55.266Z,5.90
2018-09-15T00:11:55.498Z,7.20
2018-09-15T00:12:55.724Z,7.60
2018-09-15T00:13:55.951Z,6.00
2018-09-15T00:14:56.180Z,6.20
2018-09-15T00:15:56.408Z,6.00
2018-09-15T00:16:56.636Z,7.30
2018-09-15T00:17:56.867Z,6.50
2018-09-15T00:18:57.091Z,7.90
2018-09-15T00:19:57.323Z,4.70
2018-09-15T00:20:57.550Z,7.00
2018-09-15T00:21:57.777Z,5.80
2018-09-15T00:22:58.009Z,6.20
2018-09-15T00:23:58.234Z,6.20
2018-09-15T00:24:58.461Z,7.10
2018-09-15T00:25:58.690Z,6.90
2018-09-15T00:26:58.919Z,7.10
2018-09-15T00:27:59.151Z,6.40
2018-09-15T00:28:59.376Z,5.90
2018-09-15T00:29:59.604Z,7.10
2018-09-15T00:30:59.832Z,5.90
2018-09-15T00:32:00.060Z,7.80
2018-09-15T00:33:00.289Z,7.70
2018-09-15T00:34:00.517Z,8.10
2018-09-15T00:35:00.746Z,5.70
2018-09-15T00:36:00.974Z,6.40
2018-09-15T00:37:01.200Z,7.40
2018-09-15T00:38:01.432Z,6.00
2018-09-15T00:39:01.794Z,8.20
2018-09-15T00:40:01.887Z,8.00
2018-09-15T00:41:02.114Z,8.30
2018-09-15T00:42:02.342Z,4.90
2018-09-15T00:43:02.570Z,6.00
2018-09-15T00:44:02.796Z,5.80
2018-09-15T00:45:03.025Z,5.80
2018-09-15T00:46:03.253Z,7.50
2018-09-15T00:47:03.479Z,5.70
2018-09-15T00:48:03.708Z,5.70
2018-09-15T00:49:03.938Z,5.10
2018-09-15T00:50:04.162Z,4.80
2018-09-15T00:51:04.393Z,5.30
2018-09-15T00:52:04.624Z,7.90
2018-09-15T00:53:04.851Z,5.60
2018-09-15T00:54:05.078Z,6.60
2018-09-15T00:55:05.308Z,6.90
2018-09-15T00:56:05.536Z,7.40
2018-09-15T00:57:05.763Z,10.10
2018-09-15T00:58:05.990Z,5.00
2018-09-15T00:59:06.217Z,7.10
2018-09-15T01:00:06.483Z,6.50
2018-09-15T01:01:06.711Z,5.60
2018-09-15T01:02:06.941Z,10.60
2018-09-15T01:03:07.167Z,6.50
2018-09-15T01:04:07.394Z,5.80
2018-09-15T01:05:07.625Z,6.00
2018-09-15T01:06:07.851Z,7.60
2018-09-15T01:07:08.079Z,5.10
2018-09-15T01:08:08.304Z,5.70
2018-09-15T01:09:08.531Z,5.70
2018-09-15T01:10:08.760Z,5.90
2018-09-15T01:11:08.987Z,10.00
2018-09-15T01:12:09.253Z,7.40
2018-09-15T01:13:09.438Z,7.30
2018-09-15T01:14:09.792Z,6.60
2018-09-15T01:15:09.898Z,7.30
2018-09-15T01:16:10.126Z,6.50
2018-09-15T01:17:10.355Z,5.50
2018-09-15T01:18:10.585Z,6.40
2018-09-15T01:19:10.811Z,5.80
2018-09-15T01:20:11.099Z,4.90
2018-09-15T01:21:11.273Z,5.40
2018-09-15T01:22:11.499Z,4.80
2018-09-15T01:23:11.728Z,5.80
2018-09-15T01:24:11.957Z,6.70
2018-09-15T01:25:12.188Z,7.30
2018-09-15T01:26:12.402Z,5.50
2018-09-15T01:27:12.632Z,4.70
2018-09-15T01:28:12.860Z,5.70
2018-09-15T01:29:13.087Z,7.10
2018-09-15T01:30:13.315Z,4.20
2018-09-15T01:31:13.543Z,6.20
2018-09-15T01:32:13.770Z,7.30
2018-09-15T01:33:13.997Z,4.90
2018-09-15T01:34:14.225Z,4.90
2018-09-15T01:35:14.454Z,9.80
2018-09-15T01:36:14.682Z,6.40
2018-09-15T01:37:14.909Z,6.30
2018-09-15T01:38:15.138Z,4.70
2018-09-15T01:39:15.368Z,4.80
2018-09-15T01:40:15.598Z,7.70
2018-09-15T01:41:15.820Z,6.30
2018-09-15T01:42:16.047Z,7.50
2018-09-15T01:43:16.277Z,6.50
2018-09-15T01:44:16.501Z,5.30
2018-09-15T01:45:16.729Z,6.40
2018-09-15T01:46:16.956Z,6.70
2018-09-15T01:47:17.186Z,4.80
2018-09-15T01:48:17.415Z,6.30
2018-09-15T01:49:17.638Z,6.30
2018-09-15T01:50:17.868Z,6.20
2018-09-15T01:51:18.095Z,5.60
2018-09-15T01:52:18.325Z,6.40
2018-09-15T01:53:18.552Z,6.90
2018-09-15T01:54:18.784Z,7.30
2018-09-15T01:55:19.008Z,6.30
2018-09-15T01:56:19.236Z,8.90
2018-09-15T01:57:19.469Z,5.40
2018-09-15T01:58:19.692Z,4.90
2018-09-15T01:59:19.921Z,6.70
2018-09-15T02:00:20.147Z,6.50
2018-09-15T02:01:20.375Z,5.60
2018-09-15T02:02:20.604Z,6.10
2018-09-15T02:03:20.829Z,5.40
2018-09-15T02:04:21.057Z,6.80
2018-09-15T02:05:21.290Z,8.70
2018-09-15T02:06:21.515Z,6.90
2018-09-15T02:07:21.742Z,5.40
2018-09-15T02:08:21.972Z,6.20
2018-09-15T02:09:22.201Z,6.20
2018-09-15T02:10:22.424Z,6.40
2018-09-15T02:11:22.662Z,5.20
2018-09-15T02:12:22.885Z,6.10
2018-09-15T02:13:23.110Z,7.30
2018-09-15T02:14:23.338Z,5.40
2018-09-15T02:15:23.566Z,6.80
2018-09-15T02:16:23.795Z,5.80
2018-09-15T02:17:24.027Z,5.90
2018-09-15T02:18:24.251Z,6.80
2018-09-15T02:19:24.479Z,9.20
2018-09-15T02:20:24.707Z,4.80
2018-09-15T02:21:24.935Z,6.40
2018-09-15T02:22:25.167Z,6.60
2018-09-15T02:23:25.395Z,6.50
2018-09-15T02:24:25.621Z,7.00
2018-09-15T02:25:25.851Z,5.70
2018-09-15T02:26:26.076Z,7.00
2018-09-15T02:27:26.307Z,5.80
2018-09-15T02:28:26.531Z,5.90
2018-09-15T02:29:26.763Z,6.20
2018-09-15T02:30:26.987Z,7.50
2018-09-15T02:31:27.213Z,6.00
2018-09-15T02:32:27.440Z,7.00
2018-09-15T02:33:27.667Z,6.50
2018-09-15T02:34:27.896Z,7.80
2018-09-15T02:35:28.120Z,5.20
2018-09-15T02:36:28.352Z,5.30
2018-09-15T02:37:28.574Z,4.90
2018-09-15T02:38:28.804Z,7.10
2018-09-15T02:39:29.032Z,5.00
2018-09-15T02:40:29.261Z,7.60
2018-09-15T02:41:29.485Z,7.20
2018-09-15T02:42:29.715Z,6.90
2018-09-15T02:43:29.939Z,7.50
2018-09-15T02:44:30.166Z,6.10
2018-09-15T02:45:30.396Z,6.20
2018-09-15T02:46:30.621Z,5.30
2018-09-15T02:47:30.846Z,5.40
2018-09-15T02:48:31.077Z,7.90
2018-09-15T02:49:31.304Z,8.00
2018-09-15T02:50:31.531Z,5.60
2018-09-15T02:51:31.760Z,6.60
2018-09-15T02:52:31.987Z,6.30
2018-09-15T02:53:32.216Z,5.80
2018-09-15T02:54:32.442Z,6.90
2018-09-15T02:55:32.671Z,5.70
2018-09-15T02:56:32.898Z,7.10
2018-09-15T02:57:33.122Z,6.60
2018-09-15T02:58:33.351Z,6.80
2018-09-15T02:59:33.581Z,6.90
2018-09-15T03:00:33.811Z,7.00
2018-09-15T03:01:34.036Z,6.40
2018-09-15T03:02:34.263Z,6.90
2018-09-15T03:03:34.492Z,9.20
2018-09-15T03:04:34.718Z,8.10
2018-09-15T03:05:34.946Z,6.60
2018-09-15T03:06:35.173Z,9.00
2018-09-15T03:07:35.399Z,7.30
2018-09-15T03:08:35.630Z,7.30
2018-09-15T03:09:35.855Z,7.50
2018-09-15T03:10:36.144Z,9.40
2018-09-15T03:11:36.309Z,8.40
2018-09-15T03:12:36.535Z,6.00
2018-09-15T03:13:36.766Z,5.80
2018-09-15T03:14:36.988Z,6.90
2018-09-15T03:15:37.216Z,6.40
2018-09-15T03:16:37.444Z,7.60
2018-09-15T03:17:37.669Z,9.90
2018-09-15T03:18:37.897Z,5.80
2018-09-15T03:19:38.124Z,7.10
2018-09-15T03:20:38.351Z,7.50
2018-09-15T03:21:38.577Z,7.30
2018-09-15T03:22:38.807Z,6.50
2018-09-15T03:23:39.033Z,6.60
2018-09-15T03:24:39.265Z,7.10
2018-09-15T03:25:39.489Z,6.20
2018-09-15T03:26:39.718Z,8.70
2018-09-15T03:27:39.944Z,8.80
2018-09-15T03:28:40.176Z,8.70
2018-09-15T03:29:40.403Z,9.70
2018-09-15T03:30:40.628Z,8.80
2018-09-15T03:31:40.855Z,7.00
2018-09-15T03:32:41.086Z,7.10
2018-09-15T03:33:41.314Z,7.90
2018-09-15T03:34:41.540Z,9.20
2018-09-15T03:35:41.770Z,6.30
2018-09-15T03:36:41.994Z,7.00
2018-09-15T03:37:42.223Z,8.50
2018-09-15T03:38:42.450Z,8.70
2018-09-15T03:39:42.680Z,7.60
2018-09-15T03:40:42.906Z,6.60
2018-09-15T03:41:43.285Z,7.70
2018-09-15T03:42:43.361Z,6.70
2018-09-15T03:43:43.593Z,8.50
2018-09-15T03:44:43.821Z,8.30
2018-09-15T03:45:44.048Z,6.60
2018-09-15T03:46:44.283Z,8.20
2018-09-15T03:47:44.504Z,6.80
2018-09-15T03:48:44.734Z,8.50
2018-09-15T03:49:44.958Z,6.60
2018-09-15T03:50:45.188Z,8.20
2018-09-15T03:51:45.419Z,7.60
2018-09-15T03:52:45.643Z,6.70
2018-09-15T03:53:45.872Z,8.50
2018-09-15T03:54:46.103Z,7.20
2018-09-15T03:55:46.326Z,8.70
2018-09-15T03:56:46.552Z,7.70
2018-09-15T03:57:46.779Z,7.90
2018-09-15T03:58:47.007Z,8.80
2018-09-15T03:59:47.260Z,8.60
2018-09-15T04:00:47.461Z,7.70
2018-09-15T04:01:47.689Z,7.70
2018-09-15T04:02:47.914Z,8.40
2018-09-15T04:03:48.142Z,9.30
2018-09-15T04:04:48.369Z,7.90
2018-09-15T04:05:48.596Z,9.40
2018-09-15T04:06:48.828Z,8.70
2018-09-15T04:07:49.051Z,8.40
2018-09-15T04:08:49.281Z,8.30
2018-09-15T04:09:49.507Z,7.10
2018-09-15T04:10:49.738Z,8.40
2018-09-15T04:11:49.965Z,9.20
2018-09-15T04:12:50.190Z,8.50
2018-09-15T04:13:50.419Z,10.50
2018-09-15T04:14:50.649Z,7.90
2018-09-15T04:15:50.874Z,10.00
2018-09-15T04:16:51.102Z,11.30
2018-09-15T04:17:51.329Z,8.00
2018-09-15T04:18:51.559Z,7.60
2018-09-15T04:19:51.781Z,9.40
2018-09-15T04:20:52.007Z,10.00
2018-09-15T04:21:52.238Z,8.90
2018-09-15T04:22:52.465Z,7.80
2018-09-15T04:23:52.692Z,6.90
2018-09-15T04:24:52.920Z,6.90
2018-09-15T04:25:53.146Z,15.00
2018-09-15T04:26:53.371Z,8.30
2018-09-15T04:27:53.598Z,9.80
2018-09-15T04:28:53.823Z,8.20
2018-09-15T04:29:54.055Z,7.90
2018-09-15T04:30:54.292Z,11.90
2018-09-15T04:31:54.506Z,7.90
2018-09-15T04:32:54.736Z,9.80
2018-09-15T04:33:54.959Z,9.60
2018-09-15T04:34:55.189Z,8.80
2018-09-15T04:35:55.415Z,9.60
2018-09-15T04:36:55.641Z,8.40
2018-09-15T04:37:55.871Z,8.00
2018-09-15T04:38:56.099Z,10.60
2018-09-15T04:39:56.326Z,9.30
2018-09-15T04:40:56.551Z,9.00
2018-09-15T04:41:56.781Z,9.20
2018-09-15T04:42:57.008Z,8.00
2018-09-15T04:43:57.236Z,8.50
2018-09-15T04:44:57.461Z,9.10
2018-09-15T04:45:57.691Z,7.80
2018-09-15T04:46:57.916Z,9.10
2018-09-15T04:47:58.143Z,7.10
2018-09-15T04:48:58.372Z,7.70
2018-09-15T04:49:58.596Z,8.20
2018-09-15T04:50:58.827Z,7.90
2018-09-15T04:51:59.049Z,8.40
2018-09-15T04:52:59.279Z,9.00
2018-09-15T04:53:59.503Z,8.00
2018-09-15T04:54:59.732Z,8.00
2018-09-15T04:55:59.960Z,9.90
2018-09-15T04:57:00.191Z,11.20
2018-09-15T04:58:00.421Z,8.20
2018-09-15T04:59:00.643Z,7.90
2018-09-15T05:00:00.870Z,9.40
2018-09-15T05:01:01.100Z,8.80
2018-09-15T05:02:01.327Z,8.00
2018-09-15T05:03:01.555Z,8.70
2018-09-15T05:04:01.779Z,8.90
2018-09-15T05:05:02.012Z,8.60
2018-09-15T05:06:02.235Z,7.70
2018-09-15T05:07:02.463Z,8.20
2018-09-15T05:08:02.692Z,8.30
2018-09-15T05:09:02.917Z,10.60
2018-09-15T05:10:03.144Z,9.50
2018-09-15T05:11:03.370Z,8.10
2018-09-15T05:12:03.606Z,7.80
2018-09-15T05:13:03.832Z,7.70
2018-09-15T05:14:04.056Z,8.60
2018-09-15T05:15:04.286Z,8.70
2018-09-15T05:16:04.513Z,11.50
2018-09-15T05:17:04.741Z,9.20
2018-09-15T05:18:04.964Z,10.40
2018-09-15T05:19:05.194Z,10.20
2018-09-15T05:20:05.419Z,11.00
2018-09-15T05:21:05.647Z,9.10
2018-09-15T05:22:05.874Z,11.30
2018-09-15T05:23:06.103Z,10.30
2018-09-15T05:24:06.330Z,8.20
2018-09-15T05:25:06.556Z,10.70
2018-09-15T05:26:06.782Z,8.40
2018-09-15T05:27:07.008Z,8.80
2018-09-15T05:28:07.240Z,11.50
2018-09-15T05:29:07.471Z,10.10
2018-09-15T05:30:07.697Z,8.60
2018-09-15T05:31:07.926Z,8.30
2018-09-15T05:32:08.154Z,8.40
2018-09-15T05:33:08.385Z,8.00
2018-09-15T05:34:08.613Z,9.00
2018-09-15T05:35:08.841Z,8.60
2018-09-15T05:36:09.069Z,11.20
2018-09-15T05:37:09.296Z,8.50
2018-09-15T05:38:09.527Z,7.90
2018-09-15T05:39:09.753Z,9.10
2018-09-15T05:40:09.980Z,7.80
2018-09-15T05:41:10.207Z,8.60
2018-09-15T05:42:10.435Z,7.90
2018-09-15T05:43:10.661Z,8.20
2018-09-15T05:44:10.891Z,8.20
2018-09-15T05:45:11.116Z,7.40
2018-09-15T05:46:11.342Z,6.50
2018-09-15T05:47:11.572Z,6.20
2018-09-15T05:48:11.805Z,6.10
2018-09-15T05:49:12.026Z,6.20
2018-09-15T05:50:12.254Z,5.90
2018-09-15T05:51:12.484Z,7.20
2018-09-15T05:52:12.711Z,6.40
2018-09-15T05:53:12.938Z,7.60
2018-09-15T05:54:13.168Z,6.10
2018-09-15T05:55:13.393Z,6.50
2018-09-15T05:56:13.676Z,5.10
2018-09-15T05:57:13.852Z,6.90
2018-09-15T05:58:14.081Z,5.50
2018-09-15T05:59:14.311Z,5.80
2018-09-15T06:00:14.535Z,8.30
2018-09-15T06:01:14.764Z,7.00
2018-09-15T06:02:14.992Z,7.20
2018-09-15T06:03:15.232Z,5.30
2018-09-15T06:04:15.452Z,6.20
2018-09-15T06:05:15.684Z,5.20
2018-09-15T06:06:15.911Z,4.80
2018-09-15T06:07:16.141Z,5.10
2018-09-15T06:08:16.370Z,4.80
2018-09-15T06:09:16.596Z,5.50
2018-09-15T06:10:16.827Z,5.80
2018-09-15T06:11:17.054Z,5.00
2018-09-15T06:12:17.285Z,7.00
2018-09-15T06:13:17.515Z,5.90
2018-09-15T06:14:17.745Z,6.70
2018-09-15T06:15:17.974Z,6.70
2018-09-15T06:16:18.205Z,5.30
2018-09-15T06:17:18.435Z,5.80
2018-09-15T06:18:18.669Z,5.80
2018-09-15T06:19:18.900Z,5.50
2018-09-15T06:20:19.131Z,5.90
2018-09-15T06:21:19.360Z,5.00
2018-09-15T06:22:19.591Z,5.30
2018-09-15T06:23:19.820Z,5.30
2018-09-15T06:24:20.051Z,5.60
2018-09-15T06:25:20.279Z,5.60
2018-09-15T06:26:20.509Z,6.60
2018-09-15T06:27:20.740Z,5.10
2018-09-15T06:28:20.971Z,5.40
2018-09-15T06:29:21.203Z,5.30
2018-09-15T06:30:21.441Z,9.20
2018-09-15T06:31:21.669Z,7.00
2018-09-15T06:32:21.903Z,6.60
2018-09-15T06:33:22.135Z,5.10
2018-09-15T06:34:22.363Z,6.50
2018-09-15T06:35:22.593Z,7.90
2018-09-15T06:36:22.849Z,6.30
2018-09-15T06:37:23.053Z,6.60
2018-09-15T06:38:23.286Z,6.90
2018-09-15T06:39:23.549Z,6.20
2018-09-15T06:40:23.744Z,7.60
2018-09-15T06:41:23.973Z,6.50
2018-09-15T06:42:24.203Z,8.10
2018-09-15T06:43:24.435Z,6.50
2018-09-15T06:44:24.669Z,6.60
2018-09-15T06:45:24.958Z,7.60
2018-09-15T06:46:25.129Z,6.20
2018-09-15T06:47:25.372Z,6.80
2018-09-15T06:48:25.592Z,7.00
2018-09-15T06:49:25.822Z,7.10
2018-09-15T06:50:26.056Z,7.30
2018-09-15T06:51:26.298Z,7.20
2018-09-15T06:52:26.514Z,6.80
2018-09-15T06:53:26.741Z,7.40
2018-09-15T06:54:26.975Z,7.10
2018-09-15T06:55:27.203Z,6.90
2018-09-15T06:56:27.434Z,7.80
2018-09-15T06:57:27.664Z,8.50
2018-09-15T06:58:27.894Z,7.40
2018-09-15T06:59:28.126Z,7.70
2018-09-15T07:00:28.356Z,7.70
2018-09-15T07:01:28.585Z,6.50
2018-09-15T07:02:28.817Z,10.10
2018-09-15T07:03:29.046Z,8.40
2018-09-15T07:04:29.314Z,8.50
2018-09-15T07:05:29.545Z,7.00
2018-09-15T07:06:29.775Z,7.10
2018-09-15T07:07:30.001Z,8.50
2018-09-15T07:08:30.232Z,7.30
2018-09-15T07:09:30.461Z,11.50
2018-09-15T07:10:30.693Z,7.30
2018-09-15T07:11:30.920Z,9.00
2018-09-15T07:12:31.151Z,8.70
2018-09-15T07:13:31.380Z,8.30
2018-09-15T07:14:31.609Z,7.10
2018-09-15T07:15:31.837Z,8.70
2018-09-15T07:16:32.066Z,7.50
2018-09-15T07:17:32.298Z,9.90
2018-09-15T07:18:32.533Z,7.20
2018-09-15T07:19:32.757Z,7.80
2018-09-15T07:20:32.987Z,10.30
2018-09-15T07:21:33.215Z,8.40
2018-09-15T07:22:33.492Z,8.40
2018-09-15T07:23:33.677Z,7.90
2018-09-15T07:24:33.909Z,9.30
2018-09-15T07:25:34.137Z,7.50
2018-09-15T07:26:34.368Z,9.20
2018-09-15T07:27:34.599Z,8.50
2018-09-15T07:28:34.829Z,9.60
2018-09-15T07:29:35.055Z,9.40
2018-09-15T07:30:35.286Z,8.90
2018-09-15T07:31:35.630Z,7.90
2018-09-15T07:32:35.750Z,20.60
2018-09-15T07:33:35.976Z,9.10
2018-09-15T07:34:36.206Z,8.40
2018-09-15T07:35:36.435Z,11.10
2018-09-15T07:36:36.667Z,9.10
2018-09-15T07:37:36.973Z,8.10
2018-09-15T07:38:37.131Z,9.60
2018-09-15T07:39:37.357Z,8.70
2018-09-15T07:40:37.588Z,9.50
2018-09-15T07:41:37.818Z,8.70
2018-09-15T07:42:38.046Z,9.20
2018-09-15T07:43:38.280Z,9.80
2018-09-15T07:44:38.523Z,9.60
2018-09-15T07:45:38.737Z,9.30
2018-09-15T07:46:38.970Z,8.30
2018-09-15T07:47:39.200Z,9.10
2018-09-15T07:48:39.433Z,7.30
2018-09-15T07:49:39.667Z,8.30
2018-09-15T07:50:39.889Z,7.30
2018-09-15T07:51:40.174Z,9.30
2018-09-15T07:52:40.348Z,13.50
2018-09-15T07:53:40.580Z,10.20
2018-09-15T07:54:40.807Z,8.00
2018-09-15T07:55:41.038Z,9.20
2018-09-15T07:56:41.269Z,8.90
2018-09-15T07:57:41.582Z,10.20
2018-09-15T07:58:41.726Z,8.50
2018-09-15T07:59:41.956Z,10.00
2018-09-15T08:00:42.185Z,10.00
2018-09-15T08:01:42.416Z,7.80
2018-09-15T08:02:42.641Z,8.90
2018-09-15T08:03:42.869Z,10.00
2018-09-15T08:04:43.102Z,9.20
2018-09-15T08:05:43.332Z,9.60
2018-09-15T08:06:43.558Z,8.90
2018-09-15T08:07:43.790Z,10.90
2018-09-15T08:08:44.019Z,16.00
2018-09-15T08:09:44.250Z,12.30
2018-09-15T08:10:44.477Z,11.50
2018-09-15T08:11:44.707Z,9.80
2018-09-15T08:12:44.939Z,9.70
2018-09-15T08:13:45.166Z,14.60
2018-09-15T08:14:45.396Z,12.60
2018-09-15T08:15:45.625Z,16.20
2018-09-15T08:16:45.854Z,11.30
2018-09-15T08:17:46.084Z,11.10
2018-09-15T08:18:46.314Z,8.30
2018-09-15T08:19:46.549Z,12.10
2018-09-15T08:20:46.810Z,12.30
2018-09-15T08:21:47.007Z,11.70
2018-09-15T08:22:47.236Z,9.80
2018-09-15T08:23:47.465Z,10.50
2018-09-15T08:24:47.695Z,10.80
2018-09-15T08:25:47.942Z,11.90
2018-09-15T08:26:48.155Z,8.80
2018-09-15T08:27:48.414Z,10.60
2018-09-15T08:28:48.612Z,10.80
2018-09-15T08:29:48.843Z,9.20
2018-09-15T08:30:49.069Z,11.40
2018-09-15T08:31:49.336Z,10.10
2018-09-15T08:32:49.531Z,9.90
2018-09-15T08:33:49.769Z,8.40
2018-09-15T08:34:49.994Z,8.10
2018-09-15T08:35:50.227Z,9.60
2018-09-15T08:36:50.456Z,8.10
2018-09-15T08:37:50.687Z,10.10
2018-09-15T08:38:50.917Z,8.60
2018-09-15T08:39:51.150Z,10.20
2018-09-15T08:40:51.376Z,10.10
2018-09-15T08:41:51.603Z,8.70
2018-09-15T08:42:51.835Z,12.20
2018-09-15T08:43:52.066Z,8.90
2018-09-15T08:44:52.298Z,9.30
2018-09-15T08:45:52.528Z,14.50
2018-09-15T08:46:52.758Z,10.90
2018-09-15T08:47:52.987Z,7.90
2018-09-15T08:48:53.218Z,11.70
2018-09-15T08:49:53.446Z,10.30
2018-09-15T08:50:53.677Z,8.40
2018-09-15T08:51:53.906Z,9.00
2018-09-15T08:52:54.137Z,6.40
2018-09-15T08:53:54.362Z,6.20
2018-09-15T08:54:54.595Z,7.60
2018-09-15T08:55:54.825Z,6.20
2018-09-15T08:56:55.056Z,8.90
2018-09-15T08:57:55.289Z,7.10
2018-09-15T08:58:55.517Z,6.10
2018-09-15T08:59:55.749Z,6.80
2018-09-15T09:00:55.981Z,6.80
2018-09-15T09:01:56.212Z,6.90
2018-09-15T09:02:56.442Z,8.50
2018-09-15T09:03:56.677Z,5.60
2018-09-15T09:04:56.930Z,6.40
2018-09-15T09:05:57.136Z,5.10
2018-09-15T09:06:57.367Z,5.50
2018-09-15T09:07:57.597Z,6.70
2018-09-15T09:08:57.826Z,5.70
2018-09-15T09:09:58.060Z,7.40
2018-09-15T09:10:58.289Z,7.70
2018-09-15T09:11:58.520Z,5.30
2018-09-15T09:12:58.752Z,6.10
2018-09-15T09:13:58.980Z,5.80
2018-09-15T09:14:59.215Z,4.10
2018-09-15T09:15:59.445Z,5.30
2018-09-15T09:16:59.674Z,4.30
2018-09-15T09:17:59.904Z,5.00
2018-09-15T09:19:00.133Z,4.90
2018-09-15T09:20:00.427Z,4.10
2018-09-15T09:21:00.598Z,5.00
2018-09-15T09:22:00.831Z,6.10
2018-09-15T09:23:01.065Z,6.20
2018-09-15T09:24:01.293Z,6.90
2018-09-15T09:25:01.530Z,3.80
2018-09-15T09:26:01.767Z,4.50
2018-09-15T09:27:01.994Z,3.80
2018-09-15T09:28:02.225Z,3.50
2018-09-15T09:29:02.455Z,4.60
2018-09-15T09:30:02.686Z,4.80
2018-09-15T09:31:02.916Z,4.60
2018-09-15T09:32:03.149Z,4.20
2018-09-15T09:33:03.393Z,3.70
2018-09-15T09:34:03.613Z,4.20
2018-09-15T09:35:03.845Z,6.30
2018-09-15T09:36:04.075Z,9.70
2018-09-15T09:37:04.307Z,5.90
2018-09-15T09:38:04.591Z,9.20
2018-09-15T09:39:04.825Z,8.60
2018-09-15T09:40:05.056Z,10.80
2018-09-15T09:41:05.283Z,11.90
2018-09-15T09:42:05.519Z,11.20
2018-09-15T09:43:05.744Z,12.60
2018-09-15T09:44:05.978Z,13.50
2018-09-15T09:45:06.204Z,10.60
2018-09-15T09:46:06.436Z,6.50
2018-09-15T09:47:06.676Z,11.80
2018-09-15T09:48:06.918Z,9.90
2018-09-15T09:49:07.124Z,9.50
2018-09-15T09:50:07.359Z,7.80
2018-09-15T09:51:07.589Z,9.90
2018-09-15T09:52:07.825Z,7.10
2018-09-15T09:53:08.050Z,10.50
2018-09-15T09:54:08.285Z,11.60
2018-09-15T09:55:08.520Z,8.30
2018-09-15T09:56:08.757Z,8.30
2018-09-15T09:57:08.982Z,9.00
2018-09-15T09:58:09.212Z,6.30
2018-09-15T09:59:09.443Z,6.70
2018-09-15T10:00:09.676Z,6.80
2018-09-15T10:01:09.934Z,10.20
2018-09-15T10:02:10.144Z,6.70
2018-09-15T10:03:10.375Z,4.90
2018-09-15T10:04:10.608Z,7.80
2018-09-15T10:05:10.840Z,10.90
2018-09-15T10:06:11.069Z,6.10
2018-09-15T10:07:11.396Z,5.60
2018-09-15T10:08:11.534Z,4.30
2018-09-15T10:09:11.766Z,5.70
2018-09-15T10:10:11.995Z,2.10
2018-09-15T10:11:12.225Z,2.70
2018-09-15T10:12:12.458Z,4.90
2018-09-15T10:13:12.690Z,7.80
2018-09-15T10:14:12.923Z,7.50
2018-09-15T10:15:13.156Z,6.70
2018-09-15T10:16:13.397Z,7.90
2018-09-15T10:17:13.618Z,14.30
2018-09-15T10:18:13.845Z,12.20
2018-09-15T10:19:14.072Z,13.00
2018-09-15T10:20:14.301Z,7.90
2018-09-15T10:21:14.539Z,9.70
2018-09-15T10:22:14.769Z,16.10
2018-09-15T10:23:15.001Z,5.80
2018-09-15T10:24:15.234Z,4.20
2018-09-15T10:25:15.468Z,12.00
2018-09-15T10:26:15.704Z,11.00
2018-09-15T10:27:15.935Z,8.20
2018-09-15T10:28:16.168Z,10.30
2018-09-15T10:29:16.401Z,9.20
2018-09-15T10:30:16.634Z,12.50
2018-09-15T10:31:16.871Z,5.90
2018-09-15T10:32:17.099Z,3.20
2018-09-15T10:33:17.333Z,7.70
2018-09-15T10:34:17.563Z,2.80
2018-09-15T10:35:17.798Z,5.80
2018-09-15T10:36:18.028Z,6.30
2018-09-15T10:37:18.264Z,5.00
2018-09-15T10:38:18.559Z,8.60
2018-09-15T10:39:18.726Z,6.30
2018-09-15T10:40:19.022Z,5.40
2018-09-15T10:41:19.195Z,6.60
2018-09-15T10:42:19.428Z,3.90
2018-09-15T10:43:19.663Z,5.80
2018-09-15T10:44:19.890Z,5.40
2018-09-15T10:45:20.128Z,6.00
2018-09-15T10:46:20.357Z,8.90
2018-09-15T10:47:20.590Z,4.70
2018-09-15T10:48:20.821Z,3.60
2018-09-15T10:49:21.058Z,5.60
2018-09-15T10:50:21.289Z,6.70
2018-09-15T10:51:21.521Z,5.10
2018-09-15T10:52:21.777Z,3.90
2018-09-15T10:53:21.985Z,4.90
2018-09-15T10:54:22.217Z,5.70
2018-09-15T10:55:22.449Z,3.30
2018-09-15T10:56:22.681Z,5.90
2018-09-15T10:57:22.913Z,3.90
2018-09-15T10:58:23.145Z,5.80
2018-09-15T10:59:23.397Z,5.70
2018-09-15T11:00:23.685Z,2.50
2018-09-15T11:01:23.869Z,8.90
2018-09-15T11:02:24.103Z,5.20
2018-09-15T11:03:24.340Z,8.40
2018-09-15T11:04:24.566Z,6.80
2018-09-15T11:05:24.802Z,8.00
2018-09-15T11:06:25.034Z,6.90
2018-09-15T11:07:25.263Z,5.00
2018-09-15T11:08:25.498Z,14.30
2018-09-15T11:09:25.728Z,4.00
2018-09-15T11:10:25.960Z,4.00
2018-09-15T11:11:26.195Z,5.20
2018-09-15T11:12:26.428Z,4.70
2018-09-15T11:13:26.699Z,6.50
2018-09-15T11:14:26.892Z,4.30
2018-09-15T11:15:27.129Z,10.10
2018-09-15T11:16:27.362Z,3.50
2018-09-15T11:17:27.593Z,6.40
2018-09-15T11:18:27.827Z,3.20
2018-09-15T11:19:28.060Z,3.30
2018-09-15T11:20:28.296Z,8.00
2018-09-15T11:21:28.530Z,5.30
2018-09-15T11:22:28.778Z,5.60
2018-09-15T11:23:28.996Z,5.70
2018-09-15T11:24:29.232Z,3.90
2018-09-15T11:25:29.468Z,5.30
2018-09-15T11:26:29.700Z,3.90
2018-09-15T11:27:29.934Z,4.10
2018-09-15T11:28:30.209Z,4.60
2018-09-15T11:29:30.408Z,4.30
2018-09-15T11:30:30.642Z,4.50
2018-09-15T11:31:30.877Z,5.70
2018-09-15T11:32:31.108Z,5.30
2018-09-15T11:33:31.341Z,4.30
2018-09-15T11:34:31.579Z,4.20
2018-09-15T11:35:31.811Z,3.80
2018-09-15T11:36:32.041Z,4.40
2018-09-15T11:37:32.273Z,5.30
2018-09-15T11:38:32.506Z,4.60
2018-09-15T11:39:32.741Z,4.20
2018-09-15T11:40:32.974Z,3.30
2018-09-15T11:41:33.211Z,4.30
2018-09-15T11:42:33.440Z,5.20
2018-09-15T11:43:33.679Z,4.10
2018-09-15T11:44:33.906Z,4.10
2018-09-15T11:45:34.138Z,5.00
2018-09-15T11:46:34.374Z,3.40
2018-09-15T11:47:34.610Z,5.70
2018-09-15T11:48:34.841Z,4.50
2018-09-15T11:49:35.076Z,4.60
2018-09-15T11:50:35.310Z,3.90
2018-09-15T11:51:35.545Z,4.40
2018-09-15T11:52:35.778Z,5.10
2018-09-15T11:53:36.037Z,5.10
2018-09-15T11:54:36.250Z,4.90
2018-09-15T11:55:36.457Z,7.90
2018-09-15T11:56:36.692Z,4.20
2018-09-15T11:57:36.924Z,4.60
2018-09-15T11:58:37.159Z,4.10
2018-09-15T11:59:37.389Z,5.70
2018-09-15T12:00:37.625Z,8.10
2018-09-15T12:01:37.859Z,6.00
2018-09-15T12:02:38.092Z,7.30
2018-09-15T12:03:38.325Z,5.60
2018-09-15T12:04:38.565Z,3.80
2018-09-15T12:05:38.792Z,5.50
2018-09-15T12:06:39.026Z,5.20
2018-09-15T12:07:39.296Z,6.90
2018-09-15T12:08:39.491Z,7.20
2018-09-15T12:09:39.719Z,6.20
2018-09-15T12:10:39.950Z,5.50
2018-09-15T12:11:40.184Z,4.10
2018-09-15T12:12:40.421Z,5.10
2018-09-15T12:13:40.655Z,3.80
2018-09-15T12:14:40.886Z,4.00
2018-09-15T12:15:41.122Z,5.10
2018-09-15T12:16:41.356Z,3.80
2018-09-15T12:17:41.590Z,4.40
2018-09-15T12:18:41.827Z,3.80
2018-09-15T12:19:42.057Z,5.50
2018-09-15T12:20:42.289Z,3.90
2018-09-15T12:21:42.550Z,5.70
2018-09-15T12:22:42.758Z,3.70
2018-09-15T12:23:42.992Z,5.20
2018-09-15T12:24:43.227Z,5.30
2018-09-15T12:25:43.459Z,5.30
2018-09-15T12:26:43.692Z,5.50
2018-09-15T12:27:43.938Z,4.30
2018-09-15T12:28:44.159Z,5.20
2018-09-15T12:29:44.396Z,3.30
2018-09-15T12:30:44.628Z,5.00
2018-09-15T12:31:44.861Z,3.70
2018-09-15T12:32:45.098Z,5.30
2018-09-15T12:33:45.327Z,4.20
2018-09-15T12:34:45.566Z,5.40
2018-09-15T12:35:45.796Z,5.40
2018-09-15T12:36:46.029Z,3.50
2018-09-15T12:37:46.261Z,4.10
2018-09-15T12:38:46.495Z,5.10
2018-09-15T12:39:46.727Z,4.60
2018-09-15T12:40:46.963Z,3.10
2018-09-15T12:41:47.195Z,4.50
2018-09-15T12:42:47.427Z,5.00
2018-09-15T12:43:47.659Z,3.80
2018-09-15T12:44:47.897Z,5.90
2018-09-15T12:45:48.123Z,4.90
2018-09-15T12:46:48.357Z,3.80
2018-09-15T12:47:48.589Z,3.30
2018-09-15T12:48:48.821Z,5.70
2018-09-15T12:49:49.056Z,4.30
2018-09-15T12:50:49.292Z,7.10
2018-09-15T12:51:49.568Z,3.10
2018-09-15T12:52:49.751Z,6.10
2018-09-15T12:53:49.986Z,4.20
2018-09-15T12:54:50.220Z,5.50
2018-09-15T12:55:50.456Z,5.60
2018-09-15T12:56:50.686Z,5.90
2018-09-15T12:57:51.002Z,6.70
2018-09-15T12:58:51.158Z,4.60
2018-09-15T12:59:51.387Z,4.60
2018-09-15T13:00:51.624Z,5.80
2018-09-15T13:01:51.859Z,4.80
2018-09-15T13:02:52.089Z,5.80
2018-09-15T13:03:52.323Z,6.10
2018-09-15T13:04:52.555Z,5.60
2018-09-15T13:05:52.787Z,4.50
2018-09-15T13:06:53.020Z,5.30
2018-09-15T13:07:53.253Z,6.50
2018-09-15T13:08:53.488Z,4.80
2018-09-15T13:09:53.723Z,4.50
2018-09-15T13:10:53.952Z,4.80
2018-09-15T13:11:54.186Z,5.50
2018-09-15T13:12:54.420Z,5.30
2018-09-15T13:13:54.654Z,5.40
2018-09-15T13:14:54.911Z,4.20
2018-09-15T13:15:55.119Z,5.30
2018-09-15T13:16:55.355Z,6.00
2018-09-15T13:17:55.590Z,5.40
2018-09-15T13:18:55.824Z,4.30